San Francisco, California
Traffic Map
Current Weather Conditions
San Francisco, California
Overcast Light Rain
Overcast
19°
Feels Like: 19°
Wind Chill: 19° Ceiling: 2300
Heat Index: 19° Visibility: 4mi
Dew Point: 16° Wind: 16mph
Humidity: 79% Direction: 180° (S)
Pressure: 29.92in Gusts: 20mph
Raw Report DataKSFO 251156Z 18014G17KT 4SM -RA FEW021 BKN023 OVC027 19/16 A2992 RMK AO2 RAB50 PRESRR SLP130 P0000 60000 T01940156 10211 20194 53005 $
Traffic Incident Summary
Active as of:
Severity:
Category:
InformationThere was an issue retrieving the traffic information for this location. Please try a different location or try again shortly.
Advertisements
Track Severe Weather on mobile